Main page
METAR-TAF:

METAR-TAF

Airports :

Southampton Airport

Southampton, England

latitude: 50-54N, longitude: 001-24W, elevation: 9 m

Current weather observation

The report was made 3 hours and 10 minutes ago, at 22:20 UTC
Wind 5 kt from the North/Northeast, varying between North and East/Northeast
Temperature 6°C
Humidity 87%
Pressure 1002 hPa
Visibility 10 km or more
Scattered clouds at a height of 4000 ft

METAR: EGHI 142220Z 03005KT 360V060 9999 SCT040 06/04 Q1002

Time: 01:30 (01:30 UTC)

Forecast

The report was made 5 hours and 29 minutes ago, at 20:01 UTC
Forecast valid from 14 at 21 UTC to 14 at 23 UTC
Wind 6 kt from the North/Northeast
Visibility 10 km or more
Scattered clouds at a height of 2500 ft
Probability 30% :
Temporary
from 14 at 21 UTC to 14 at 23 UTC
Visibility: 8000 m
Broken clouds at a height of 1400 ft
light rain

TAF: EGHI 142001Z 1421/1423 02006KT 9999 SCT025 PROB30 TEMPO 1421/1423 8000 -RA BKN014

Weather observations and forecasts of more than 4000 airports (METAR and TAF reports).

The available stations are represented by yellow and red dots on the map.

Hover mouse over dot to see the name of the station.

Then click to see weather observations and forecasts.

To change the map : click on the green buttons with a black cross to zoom in, on the green button with a dash to zoom out, or on the green arrows for adjacent maps.


METAR-TAF: